createdAt,value
2023-01-13T00:01:26.320Z,89.50
2023-01-13T00:03:53.576Z,89.40
2023-01-13T00:06:26.083Z,89.60
2023-01-13T00:08:53.546Z,89.50
2023-01-13T00:11:20.805Z,89.40
2023-01-13T00:13:47.775Z,89.40
2023-01-13T00:16:17.254Z,89.40
2023-01-13T00:18:45.007Z,89.30
2023-01-13T00:21:16.090Z,89.30
2023-01-13T00:23:43.716Z,89.20
2023-01-13T00:26:19.938Z,89.40
2023-01-13T00:28:47.038Z,89.40
2023-01-13T00:31:16.412Z,89.50
2023-01-13T00:33:43.805Z,89.70
2023-01-13T00:36:14.003Z,89.80
2023-01-13T00:38:43.084Z,89.90
2023-01-13T00:41:15.363Z,90.20
2023-01-13T00:43:42.985Z,90.30
2023-01-13T00:46:12.328Z,90.20
2023-01-13T00:48:39.430Z,90.00
2023-01-13T00:51:09.961Z,89.80
2023-01-13T00:53:40.430Z,89.80
2023-01-13T00:56:15.074Z,89.60
2023-01-13T00:58:43.450Z,89.40
2023-01-13T01:01:20.370Z,89.20
2023-01-13T01:03:52.603Z,88.80
2023-01-13T01:06:23.539Z,88.90
2023-01-13T01:08:51.409Z,89.10
2023-01-13T01:11:24.922Z,89.20
2023-01-13T01:13:53.874Z,89.10
2023-01-13T01:16:23.952Z,89.00
2023-01-13T01:18:54.905Z,89.10
2023-01-13T01:21:26.110Z,89.20
2023-01-13T01:23:53.272Z,89.20
2023-01-13T01:26:23.186Z,89.20
2023-01-13T01:28:54.090Z,89.30
2023-01-13T01:31:25.446Z,89.30
2023-01-13T01:33:54.054Z,89.40
2023-01-13T01:36:22.657Z,89.30
2023-01-13T01:38:50.549Z,89.50
2023-01-13T01:41:23.924Z,89.50
2023-01-13T01:44:02.482Z,89.70
2023-01-13T01:46:40.454Z,89.70
2023-01-13T01:49:19.153Z,89.50
2023-01-13T01:51:52.729Z,89.20
2023-01-13T01:54:25.139Z,88.70
2023-01-13T01:56:53.064Z,88.80
2023-01-13T01:59:20.238Z,88.80
2023-01-13T02:01:48.486Z,88.50
2023-01-13T02:04:25.152Z,88.70
2023-01-13T02:06:53.656Z,88.80
2023-01-13T02:09:20.625Z,88.60
2023-01-13T02:12:06.037Z,88.60
2023-01-13T02:14:34.661Z,88.60
2023-01-13T02:17:23.183Z,88.70
2023-01-13T02:20:11.810Z,88.80
2023-01-13T02:22:57.641Z,88.70
2023-01-13T02:25:33.411Z,88.50
2023-01-13T02:28:13.729Z,88.70
2023-01-13T02:31:25.678Z,88.50
2023-01-13T02:34:19.290Z,88.90
2023-01-13T02:37:32.187Z,88.80
2023-01-13T02:40:05.989Z,88.70
2023-01-13T02:42:53.393Z,88.50
2023-01-13T02:45:36.135Z,88.30
2023-01-13T02:48:06.907Z,88.10
2023-01-13T02:51:06.543Z,88.10
2023-01-13T02:53:46.149Z,88.10
2023-01-13T02:56:16.674Z,87.90
2023-01-13T02:58:45.617Z,87.80
2023-01-13T03:01:12.614Z,88.10
2023-01-13T03:03:39.504Z,88.20
2023-01-13T03:06:30.017Z,88.10
2023-01-13T03:09:09.450Z,88.00
2023-01-13T03:11:55.894Z,88.20
2023-01-13T03:14:43.948Z,88.30
2023-01-13T03:17:30.403Z,87.70
2023-01-13T03:20:09.188Z,88.20
2023-01-13T03:23:02.666Z,88.30
2023-01-13T03:25:36.064Z,88.30
2023-01-13T03:28:12.873Z,88.40
2023-01-13T03:30:44.784Z,88.40
2023-01-13T03:33:29.631Z,88.40
2023-01-13T03:36:02.143Z,88.30
2023-01-13T03:38:32.807Z,88.50
2023-01-13T03:41:05.970Z,88.70
2023-01-13T03:44:07.277Z,88.70
2023-01-13T03:46:50.932Z,88.50
2023-01-13T03:49:22.263Z,88.40
2023-01-13T03:51:54.578Z,88.30
2023-01-13T03:54:25.675Z,88.10
2023-01-13T03:56:59.819Z,88.10
2023-01-13T03:59:32.016Z,88.10
2023-01-13T04:02:14.172Z,87.50
2023-01-13T04:05:14.261Z,87.60
2023-01-13T04:08:02.459Z,87.60
2023-01-13T04:10:39.582Z,87.20
2023-01-13T04:13:15.133Z,87.50
2023-01-13T04:15:46.018Z,87.50
2023-01-13T04:18:17.953Z,87.60
2023-01-13T04:20:47.830Z,87.30
2023-01-13T04:23:15.701Z,87.20
2023-01-13T04:25:43.897Z,87.20
2023-01-13T04:28:12.378Z,86.60
2023-01-13T04:30:39.288Z,86.90
2023-01-13T04:33:06.654Z,86.80
2023-01-13T04:35:34.872Z,86.90
2023-01-13T04:38:07.581Z,86.60
2023-01-13T04:40:34.624Z,86.70
2023-01-13T04:43:01.846Z,86.80
2023-01-13T04:45:28.720Z,86.80
2023-01-13T04:47:55.535Z,87.00
2023-01-13T04:50:22.852Z,87.20
2023-01-13T04:52:50.979Z,87.30
2023-01-13T04:55:18.323Z,86.90
2023-01-13T04:57:45.315Z,86.50
2023-01-13T05:00:14.492Z,86.90
2023-01-13T05:02:41.646Z,87.10
2023-01-13T05:05:09.274Z,87.10
2023-01-13T05:07:36.213Z,87.10
2023-01-13T05:10:03.347Z,87.20
2023-01-13T05:12:51.027Z,87.40
2023-01-13T05:15:36.923Z,87.30
2023-01-13T05:18:04.560Z,87.30
2023-01-13T05:20:31.594Z,87.10
2023-01-13T05:23:16.972Z,87.10
2023-01-13T05:25:44.659Z,87.10
2023-01-13T05:28:11.699Z,87.10
2023-01-13T05:30:44.032Z,86.60
2023-01-13T05:33:13.055Z,86.70
2023-01-13T05:35:45.290Z,86.80
2023-01-13T05:38:13.764Z,87.10
2023-01-13T05:40:59.833Z,86.80
2023-01-13T05:43:27.749Z,87.00
2023-01-13T05:45:58.699Z,87.00
2023-01-13T05:48:29.151Z,87.10
2023-01-13T05:50:56.791Z,86.80
2023-01-13T05:53:24.429Z,87.10
2023-01-13T05:55:51.683Z,87.30
2023-01-13T05:58:20.686Z,87.30
2023-01-13T06:00:48.122Z,87.20
2023-01-13T06:03:16.210Z,87.30
2023-01-13T06:05:47.354Z,87.40
2023-01-13T06:08:14.289Z,87.40
2023-01-13T06:10:41.122Z,87.40
2023-01-13T06:13:08.111Z,87.30
2023-01-13T06:15:35.017Z,87.30
2023-01-13T06:18:05.319Z,87.40
2023-01-13T06:20:32.509Z,87.60
2023-01-13T06:23:00.370Z,87.40
2023-01-13T06:25:58.966Z,87.30
2023-01-13T06:28:25.923Z,87.30
2023-01-13T06:31:00.256Z,87.30
2023-01-13T06:33:33.740Z,87.10
2023-01-13T06:36:06.037Z,87.20
2023-01-13T06:38:39.687Z,87.50
2023-01-13T06:41:09.657Z,87.40
2023-01-13T06:43:38.002Z,87.10
2023-01-13T06:46:05.248Z,87.10
2023-01-13T06:48:52.784Z,87.40
2023-01-13T06:51:19.678Z,87.40
2023-01-13T06:53:46.678Z,87.30
2023-01-13T06:56:13.750Z,87.50
2023-01-13T06:58:40.682Z,87.60
2023-01-13T07:01:07.769Z,87.20
2023-01-13T07:03:34.849Z,87.30
2023-01-13T07:06:02.272Z,87.20
2023-01-13T07:08:30.807Z,86.90
2023-01-13T07:10:58.155Z,86.80
2023-01-13T07:13:43.993Z,86.80
2023-01-13T07:16:11.016Z,86.60
2023-01-13T07:18:38.566Z,86.30
2023-01-13T07:21:08.679Z,86.10
2023-01-13T07:23:40.414Z,86.40
2023-01-13T07:26:11.671Z,85.90
2023-01-13T07:28:39.247Z,85.60
2023-01-13T07:31:13.071Z,85.80
2023-01-13T07:33:40.035Z,85.80
2023-01-13T07:36:07.978Z,85.80
2023-01-13T07:38:35.489Z,85.30
2023-01-13T07:41:21.635Z,85.10
2023-01-13T07:43:48.865Z,85.10
2023-01-13T07:46:16.488Z,84.90
2023-01-13T07:48:43.622Z,84.30
2023-01-13T07:51:12.320Z,84.10
2023-01-13T07:53:39.420Z,84.10
2023-01-13T07:56:07.845Z,83.30
2023-01-13T07:58:36.110Z,82.10
2023-01-13T08:01:14.190Z,81.40
2023-01-13T08:03:41.826Z,80.60
2023-01-13T08:06:10.188Z,80.30
2023-01-13T08:08:37.453Z,79.10
2023-01-13T08:11:06.643Z,78.20
2023-01-13T08:13:34.678Z,79.30
2023-01-13T08:16:05.038Z,78.80
2023-01-13T08:18:33.451Z,78.10
2023-01-13T08:21:10.184Z,78.20
2023-01-13T08:23:37.504Z,77.90
2023-01-13T08:26:07.278Z,77.70
2023-01-13T08:28:35.205Z,77.20
2023-01-13T08:31:04.730Z,77.30
2023-01-13T08:33:32.404Z,77.60
2023-01-13T08:36:03.951Z,77.70
2023-01-13T08:38:32.454Z,77.50
2023-01-13T08:40:59.465Z,77.70
2023-01-13T08:43:26.640Z,77.00
2023-01-13T08:46:01.552Z,77.40
2023-01-13T08:48:31.429Z,78.10
2023-01-13T08:51:04.136Z,78.70
2023-01-13T08:53:31.718Z,79.30
2023-01-13T08:55:58.626Z,80.10
2023-01-13T08:58:27.104Z,80.70
2023-01-13T09:00:54.028Z,81.40
2023-01-13T09:03:20.971Z,81.60
2023-01-13T09:05:47.870Z,82.00
2023-01-13T09:08:14.829Z,82.70
2023-01-13T09:10:41.957Z,83.50
2023-01-13T09:13:13.358Z,83.80
2023-01-13T09:15:42.606Z,84.10
2023-01-13T09:18:09.912Z,84.40
2023-01-13T09:20:37.158Z,84.80
2023-01-13T09:23:07.968Z,84.90
2023-01-13T09:25:37.016Z,85.00
2023-01-13T09:28:10.268Z,85.20
2023-01-13T09:30:38.194Z,85.60
2023-01-13T09:33:23.755Z,85.60
2023-01-13T09:35:51.035Z,85.70
2023-01-13T09:38:18.310Z,85.60
2023-01-13T09:40:48.866Z,85.70
2023-01-13T09:43:44.223Z,85.80
2023-01-13T09:46:51.888Z,86.10
2023-01-13T09:49:29.103Z,86.20
2023-01-13T09:52:03.458Z,85.90
2023-01-13T09:55:00.547Z,85.90
2023-01-13T09:57:30.763Z,85.70
2023-01-13T09:59:58.714Z,85.90
2023-01-13T10:03:08.777Z,85.60
2023-01-13T10:05:44.767Z,85.10
2023-01-13T10:08:15.676Z,85.40
2023-01-13T10:10:50.006Z,85.40
2023-01-13T10:13:26.788Z,85.20
2023-01-13T10:16:42.126Z,85.00
2023-01-13T10:19:22.706Z,84.60
2023-01-13T10:21:58.695Z,84.60
2023-01-13T10:25:11.915Z,84.40
2023-01-13T10:27:40.161Z,84.00
2023-01-13T10:30:27.549Z,83.80
2023-01-13T10:33:00.414Z,83.50
2023-01-13T10:35:51.176Z,83.40
2023-01-13T10:38:24.635Z,83.70
2023-01-13T10:40:51.452Z,84.50
2023-01-13T10:43:18.596Z,84.80
2023-01-13T10:45:59.461Z,84.90
2023-01-13T10:48:55.807Z,85.10
2023-01-13T10:51:37.805Z,85.20
2023-01-13T10:54:13.939Z,85.10
2023-01-13T10:56:43.424Z,85.00
2023-01-13T10:59:29.790Z,84.80
2023-01-13T11:01:56.844Z,85.00
2023-01-13T11:04:33.542Z,84.30
2023-01-13T11:07:02.742Z,83.70
2023-01-13T11:09:32.084Z,83.50
2023-01-13T11:12:00.038Z,83.00
2023-01-13T11:14:42.792Z,82.30
2023-01-13T11:17:46.466Z,82.10
2023-01-13T11:20:17.204Z,82.00
2023-01-13T11:22:49.057Z,81.80
2023-01-13T11:25:35.329Z,81.60
2023-01-13T11:28:32.095Z,81.90
2023-01-13T11:31:20.492Z,81.30
2023-01-13T11:33:55.510Z,80.10
2023-01-13T11:36:40.329Z,80.00
2023-01-13T11:39:29.181Z,80.00
2023-01-13T11:42:21.034Z,80.10
2023-01-13T11:45:04.133Z,79.20
2023-01-13T11:47:32.782Z,79.20
2023-01-13T11:50:01.384Z,78.80
2023-01-13T11:52:54.950Z,78.40
2023-01-13T11:55:37.779Z,78.60
2023-01-13T11:58:51.107Z,77.90
2023-01-13T12:01:44.413Z,78.40
2023-01-13T12:04:24.025Z,78.20
2023-01-13T12:07:17.389Z,78.10
2023-01-13T12:09:53.395Z,78.30
2023-01-13T12:12:27.758Z,78.70
2023-01-13T12:15:06.531Z,78.20
2023-01-13T12:17:33.437Z,77.60
2023-01-13T12:20:21.283Z,78.70
2023-01-13T12:22:52.436Z,78.00
2023-01-13T12:25:32.032Z,77.50
2023-01-13T12:28:04.833Z,77.30
2023-01-13T12:30:56.554Z,78.00
2023-01-13T12:33:46.494Z,77.90
2023-01-13T12:36:41.298Z,77.40
2023-01-13T12:39:38.845Z,76.50
2023-01-13T12:42:39.061Z,76.20
2023-01-13T12:45:12.266Z,75.80
2023-01-13T12:47:43.627Z,76.10
2023-01-13T12:50:22.617Z,76.00
2023-01-13T12:53:01.142Z,75.00
2023-01-13T12:55:28.850Z,74.80
2023-01-13T12:58:10.836Z,74.90
2023-01-13T13:00:40.664Z,74.40
2023-01-13T13:03:18.587Z,74.20
2023-01-13T13:06:04.834Z,74.90
2023-01-13T13:08:43.642Z,74.70
2023-01-13T13:11:32.159Z,73.50
2023-01-13T13:14:05.348Z,74.20
2023-01-13T13:16:33.644Z,74.20
2023-01-13T13:19:19.075Z,74.00
2023-01-13T13:22:07.719Z,73.90
2023-01-13T13:24:42.195Z,73.50
2023-01-13T13:27:24.406Z,73.30
2023-01-13T13:30:04.090Z,72.90
2023-01-13T13:32:59.402Z,73.20
2023-01-13T13:35:52.202Z,74.00
2023-01-13T13:38:56.930Z,73.00
2023-01-13T13:41:44.264Z,72.50
2023-01-13T13:44:39.021Z,72.20
2023-01-13T13:47:06.762Z,72.10
2023-01-13T13:49:37.663Z,72.30
2023-01-13T13:52:14.978Z,72.50
2023-01-13T13:54:55.246Z,72.30
2023-01-13T13:57:25.704Z,73.10
2023-01-13T13:59:57.570Z,71.90
2023-01-13T14:02:32.379Z,72.70
2023-01-13T14:05:19.488Z,72.60
2023-01-13T14:07:48.964Z,72.70
2023-01-13T14:10:46.207Z,72.40
2023-01-13T14:13:18.232Z,72.40
2023-01-13T14:15:46.175Z,72.10
2023-01-13T14:18:17.309Z,72.10
2023-01-13T14:20:51.552Z,72.60
2023-01-13T14:23:19.151Z,72.70
2023-01-13T14:25:52.182Z,72.50
2023-01-13T14:28:22.571Z,72.50
2023-01-13T14:30:50.907Z,72.50
2023-01-13T14:33:22.811Z,72.20
2023-01-13T14:36:16.008Z,72.20
2023-01-13T14:38:48.641Z,71.40
2023-01-13T14:41:24.518Z,71.70
2023-01-13T14:43:55.984Z,70.60
2023-01-13T14:46:25.489Z,71.10
2023-01-13T14:49:00.658Z,71.40
2023-01-13T14:51:30.069Z,72.10
2023-01-13T14:53:58.490Z,71.80
2023-01-13T14:57:06.189Z,71.70
2023-01-13T14:59:48.083Z,71.70
2023-01-13T15:02:30.191Z,71.90
2023-01-13T15:05:18.787Z,72.40
2023-01-13T15:08:11.451Z,72.00
2023-01-13T15:10:54.740Z,72.10
2023-01-13T15:13:35.532Z,71.90
2023-01-13T15:16:13.530Z,72.70
2023-01-13T15:18:41.282Z,72.10
2023-01-13T15:21:09.531Z,72.60
2023-01-13T15:23:36.926Z,73.00
2023-01-13T15:26:04.754Z,72.20
2023-01-13T15:28:32.234Z,72.70
2023-01-13T15:31:04.031Z,72.50
2023-01-13T15:33:33.753Z,72.70
2023-01-13T15:36:01.891Z,72.90
2023-01-13T15:38:29.054Z,72.90
2023-01-13T15:40:56.161Z,73.40
2023-01-13T15:43:43.469Z,73.60
2023-01-13T15:46:35.007Z,73.80
2023-01-13T15:49:36.278Z,73.50
2023-01-13T15:52:18.153Z,73.30
2023-01-13T15:54:45.111Z,72.90
2023-01-13T15:57:24.127Z,72.70
2023-01-13T15:59:53.847Z,73.40
2023-01-13T16:02:22.641Z,73.30
2023-01-13T17:04:30.426Z,74.20
2023-01-13T17:07:23.515Z,73.80
2023-01-13T17:09:53.285Z,74.00
2023-01-13T17:12:20.230Z,73.60
2023-01-13T17:14:47.087Z,72.90
2023-01-13T17:17:26.269Z,73.30
2023-01-13T17:19:53.795Z,73.00
2023-01-13T17:22:21.928Z,72.60
2023-01-13T17:24:50.952Z,72.70
2023-01-13T17:27:18.669Z,73.00
2023-01-13T17:29:45.864Z,72.90
2023-01-13T17:32:20.929Z,72.50
2023-01-13T17:34:47.854Z,72.50
2023-01-13T17:37:15.362Z,71.80
2023-01-13T17:39:44.348Z,72.50
2023-01-13T17:42:14.836Z,73.70
2023-01-13T17:44:41.964Z,75.10
2023-01-13T17:47:08.820Z,76.50
2023-01-13T17:49:35.850Z,77.40
2023-01-13T17:52:03.969Z,78.20
2023-01-13T17:54:31.054Z,78.80
2023-01-13T17:56:57.983Z,79.20
2023-01-13T17:59:25.052Z,79.40
2023-01-13T18:01:52.235Z,79.50
2023-01-13T18:04:22.934Z,79.80
2023-01-13T18:06:52.996Z,80.00
2023-01-13T18:09:19.999Z,80.30
2023-01-13T18:11:47.387Z,80.60
2023-01-13T18:14:14.426Z,80.40
2023-01-13T18:16:41.421Z,80.70
2023-01-13T18:19:27.981Z,81.20
2023-01-13T18:22:13.753Z,81.40
2023-01-13T18:24:59.417Z,81.10
2023-01-13T18:27:32.910Z,81.80
2023-01-13T18:30:01.390Z,81.90
2023-01-13T18:32:32.818Z,82.40
2023-01-13T18:35:06.118Z,83.00
2023-01-13T18:37:38.717Z,83.70
2023-01-13T18:40:08.005Z,84.10
2023-01-13T18:42:54.800Z,84.50
2023-01-13T18:45:30.810Z,84.90
2023-01-13T18:48:00.858Z,85.10
2023-01-13T18:50:28.816Z,85.10
2023-01-13T18:52:55.976Z,85.10
2023-01-13T18:55:23.593Z,80.30
2023-01-13T18:57:51.262Z,82.60
2023-01-13T19:00:20.843Z,84.70
2023-01-13T19:02:48.468Z,85.90
2023-01-13T19:05:15.648Z,86.30
2023-01-13T19:07:50.360Z,86.50
2023-01-13T19:10:17.754Z,86.60
2023-01-13T19:12:44.639Z,86.40
2023-01-13T19:15:11.845Z,86.20
2023-01-13T19:17:39.270Z,86.10
2023-01-13T19:20:07.001Z,85.90
2023-01-13T19:22:35.151Z,86.00
2023-01-13T19:25:03.219Z,85.80
2023-01-13T19:27:31.077Z,85.50
2023-01-13T19:30:00.633Z,85.20
2023-01-13T19:32:31.660Z,84.80
2023-01-13T19:35:01.653Z,85.10
2023-01-13T19:37:30.503Z,85.00
2023-01-13T19:40:00.305Z,85.00
2023-01-13T19:42:46.417Z,85.20
2023-01-13T19:45:27.695Z,85.20
2023-01-13T19:47:55.386Z,85.10
2023-01-13T19:50:22.405Z,85.30
2023-01-13T19:52:49.362Z,85.30
2023-01-13T19:55:16.214Z,85.30
2023-01-13T19:57:43.525Z,85.40
2023-01-13T20:00:18.266Z,85.50
2023-01-13T20:02:51.119Z,85.40
2023-01-13T20:05:22.633Z,85.50
2023-01-13T20:07:51.134Z,85.20
2023-01-13T20:10:20.262Z,85.20
2023-01-13T20:12:47.349Z,85.30
2023-01-13T20:15:14.553Z,84.90
2023-01-13T20:17:41.790Z,84.70
2023-01-13T20:20:10.698Z,84.20
2023-01-13T20:22:39.115Z,84.10
2023-01-13T20:25:10.400Z,83.80
2023-01-13T20:27:37.467Z,83.50
2023-01-13T20:30:06.385Z,83.30
2023-01-13T20:32:33.275Z,83.40
2023-01-13T20:35:00.226Z,82.90
2023-01-13T20:37:27.291Z,82.70
2023-01-13T20:39:55.339Z,82.80
2023-01-13T20:42:32.302Z,82.30
2023-01-13T20:45:01.540Z,82.40
2023-01-13T20:47:29.621Z,82.20
2023-01-13T20:49:56.658Z,82.40
2023-01-13T20:52:26.243Z,81.90
2023-01-13T20:54:55.339Z,81.90
2023-01-13T20:57:26.160Z,81.50
2023-01-13T20:59:56.850Z,81.70
2023-01-13T21:02:26.776Z,81.50
2023-01-13T21:05:00.638Z,81.90
2023-01-13T21:07:28.262Z,81.70
2023-01-13T21:09:57.402Z,81.60
2023-01-13T21:12:42.885Z,81.30
2023-01-13T21:15:18.223Z,81.30
2023-01-13T21:18:04.739Z,81.20
2023-01-13T21:20:33.854Z,81.10
2023-01-13T21:23:02.629Z,81.30
2023-01-13T21:25:30.912Z,80.70
2023-01-13T21:28:06.382Z,80.40
2023-01-13T21:30:34.241Z,80.60
2023-01-13T21:33:02.501Z,81.00
2023-01-13T21:35:35.525Z,80.20
2023-01-13T21:38:02.549Z,80.10
2023-01-13T21:40:29.416Z,80.30
2023-01-13T21:43:14.954Z,80.10
2023-01-13T21:46:00.705Z,79.80
2023-01-13T21:48:27.728Z,79.80
2023-01-13T21:50:54.806Z,79.50
2023-01-13T21:53:21.637Z,79.50
2023-01-13T21:55:52.425Z,79.50
2023-01-13T21:58:19.485Z,79.10
2023-01-13T22:00:46.447Z,79.00
2023-01-13T22:03:18.301Z,78.80
2023-01-13T22:05:46.171Z,78.60
2023-01-13T22:08:13.713Z,78.60
2023-01-13T22:11:00.268Z,78.50
2023-01-13T22:14:05.747Z,78.60
2023-01-13T22:16:37.499Z,78.10
2023-01-13T22:19:04.955Z,77.90
2023-01-13T22:21:32.151Z,77.40
2023-01-13T22:23:59.393Z,77.30
2023-01-13T22:26:26.604Z,76.80
2023-01-13T22:28:54.713Z,77.30
2023-01-13T22:31:23.815Z,77.70
2023-01-13T22:33:55.652Z,77.70
2023-01-13T22:36:26.634Z,77.70
2023-01-13T22:38:57.279Z,77.80
2023-01-13T22:41:24.284Z,77.50
2023-01-13T22:43:51.328Z,77.80
2023-01-13T22:46:20.514Z,77.30
2023-01-13T22:48:48.390Z,77.60
2023-01-13T22:51:18.695Z,77.30
2023-01-13T22:53:47.930Z,77.60
2023-01-13T22:56:20.655Z,77.70
2023-01-13T22:58:48.979Z,77.90
2023-01-13T23:01:17.663Z,78.00
2023-01-13T23:03:47.632Z,77.30
2023-01-13T23:06:21.735Z,77.40
2023-01-13T23:08:49.214Z,77.80
2023-01-13T23:11:23.968Z,77.50
2023-01-13T23:14:02.357Z,77.20
2023-01-13T23:16:30.649Z,77.40
2023-01-13T23:18:58.096Z,77.60
2023-01-13T23:21:27.860Z,77.70
2023-01-13T23:23:55.383Z,77.10
2023-01-13T23:26:23.164Z,77.40
2023-01-13T23:28:53.335Z,78.20
2023-01-13T23:31:22.072Z,78.20
2023-01-13T23:33:49.376Z,78.10
2023-01-13T23:36:21.632Z,78.10
2023-01-13T23:38:48.598Z,78.10
2023-01-13T23:41:18.618Z,78.00
2023-01-13T23:43:51.406Z,78.20
2023-01-13T23:46:18.489Z,78.50
2023-01-13T23:48:45.316Z,78.40
2023-01-13T23:51:14.065Z,78.60
2023-01-13T23:53:43.485Z,78.70
2023-01-13T23:56:16.945Z,78.80
2023-01-13T23:58:44.425Z,78.80
